createdAt,value
2022-09-16T00:00:02.927Z,99.90
2022-09-16T00:02:58.629Z,99.90
2022-09-16T00:05:52.000Z,99.90
2022-09-16T00:08:45.879Z,99.90
2022-09-16T00:11:37.241Z,99.90
2022-09-16T00:14:27.405Z,99.90
2022-09-16T00:17:17.721Z,99.90
2022-09-16T00:20:12.513Z,99.90
2022-09-16T00:23:02.953Z,99.90
2022-09-16T00:26:01.136Z,99.90
2022-09-16T00:28:52.449Z,99.90
2022-09-16T00:31:43.532Z,99.90
2022-09-16T00:34:34.325Z,99.90
2022-09-16T00:37:27.988Z,99.90
2022-09-16T00:40:18.718Z,99.90
2022-09-16T00:43:09.176Z,99.90
2022-09-16T00:46:05.018Z,99.90
2022-09-16T00:48:55.813Z,99.90
2022-09-16T00:51:48.286Z,99.90
2022-09-16T00:54:44.182Z,99.90
2022-09-16T00:57:36.226Z,99.90
2022-09-16T01:00:26.699Z,99.90
2022-09-16T01:03:18.143Z,99.90
2022-09-16T01:06:10.627Z,99.90
2022-09-16T01:09:01.309Z,99.90
2022-09-16T01:11:55.032Z,99.90
2022-09-16T01:14:58.541Z,99.90
2022-09-16T01:18:00.546Z,99.90
2022-09-16T01:21:20.735Z,99.90
2022-09-16T01:24:34.034Z,99.90
2022-09-16T01:27:56.511Z,99.90
2022-09-16T01:31:06.903Z,99.90
2022-09-16T01:34:01.889Z,99.90
2022-09-16T01:36:55.254Z,99.90
2022-09-16T01:39:51.092Z,99.90
2022-09-16T01:42:43.043Z,99.90
2022-09-16T01:45:40.389Z,99.90
2022-09-16T01:48:42.333Z,99.90
2022-09-16T01:51:39.861Z,99.90
2022-09-16T01:54:36.868Z,99.90
2022-09-16T01:57:34.316Z,99.90
2022-09-16T02:03:38.496Z,99.90
2022-09-16T02:06:31.722Z,99.90
2022-09-16T02:09:25.653Z,99.90
2022-09-16T02:12:20.890Z,99.90
2022-09-16T02:15:18.840Z,99.90
2022-09-16T02:18:13.611Z,99.90
2022-09-16T02:21:10.552Z,99.90
2022-09-16T02:24:04.408Z,99.90
2022-09-16T02:27:00.881Z,99.90
2022-09-16T02:29:54.753Z,99.90
2022-09-16T02:32:51.022Z,99.90
2022-09-16T02:35:43.340Z,99.90
2022-09-16T02:38:41.341Z,99.90
2022-09-16T02:41:31.846Z,99.90
2022-09-16T02:44:22.370Z,99.90
2022-09-16T02:47:18.062Z,99.90
2022-09-16T02:50:13.574Z,99.90
2022-09-16T02:53:08.247Z,99.90
2022-09-16T02:56:06.442Z,99.90
2022-09-16T02:58:59.034Z,99.90
2022-09-16T03:01:51.202Z,99.90
2022-09-16T03:04:42.135Z,99.90
2022-09-16T03:07:32.766Z,99.90
2022-09-16T03:10:25.177Z,99.90
2022-09-16T03:13:25.560Z,99.90
2022-09-16T03:16:28.586Z,99.90
2022-09-16T03:19:26.157Z,99.90
2022-09-16T03:22:25.593Z,99.90
2022-09-16T03:25:27.017Z,99.90
2022-09-16T03:28:24.279Z,99.90
2022-09-16T03:31:20.241Z,99.90
2022-09-16T03:34:16.936Z,99.90
2022-09-16T03:37:11.211Z,99.90
2022-09-16T03:40:06.223Z,99.90
2022-09-16T03:42:57.817Z,99.90
2022-09-16T03:45:50.822Z,99.90
2022-09-16T03:48:41.715Z,99.90
2022-09-16T03:51:32.382Z,99.90
2022-09-16T03:54:22.660Z,99.90
2022-09-16T03:57:13.035Z,99.90
2022-09-16T04:00:03.551Z,99.90
2022-09-16T04:02:56.600Z,99.90
2022-09-16T04:05:46.959Z,99.90
2022-09-16T04:08:39.768Z,99.90
2022-09-16T04:14:37.537Z,99.90
2022-09-16T04:17:28.285Z,99.90
2022-09-16T04:20:21.457Z,99.90
2022-09-16T04:26:24.369Z,99.90
2022-09-16T04:29:15.103Z,99.90
2022-09-16T04:32:05.871Z,99.90
2022-09-16T04:34:57.324Z,99.90
2022-09-16T04:37:51.260Z,99.90
2022-09-16T04:40:44.120Z,99.90
2022-09-16T04:43:35.153Z,99.90
2022-09-16T04:46:26.048Z,99.90
2022-09-16T04:49:19.684Z,99.90
2022-09-16T04:52:11.816Z,99.90
2022-09-16T04:55:09.255Z,99.90
2022-09-16T04:58:07.011Z,99.90
2022-09-16T05:04:10.971Z,99.90
2022-09-16T05:09:54.265Z,99.90
2022-09-16T05:15:58.464Z,99.90
2022-09-16T05:18:51.389Z,99.90
2022-09-16T05:24:44.834Z,99.90
2022-09-16T05:27:36.364Z,99.90
2022-09-16T06:50:56.299Z,99.90
2022-09-16T06:54:01.569Z,99.90
2022-09-16T06:57:06.589Z,99.90
2022-09-16T08:25:44.519Z,67.60
2022-09-16T09:08:04.337Z,51.10
2022-09-16T10:01:02.618Z,51.70
2022-09-16T10:13:16.471Z,54.40
2022-09-16T10:28:46.319Z,58.30
2022-09-16T10:34:37.993Z,60.10
2022-09-16T11:50:26.083Z,58.00
2022-09-16T11:53:42.219Z,58.00
2022-09-16T14:51:38.762Z,99.90
2022-09-16T16:09:33.852Z,99.90
2022-09-16T16:28:45.177Z,99.90
2022-09-16T16:44:12.618Z,99.90
2022-09-16T16:47:17.266Z,99.90
2022-09-16T16:53:31.645Z,99.90
2022-09-16T16:56:36.249Z,99.90
2022-09-16T17:08:06.448Z,99.90
2022-09-16T17:11:10.925Z,99.90
2022-09-16T17:52:14.030Z,99.90
2022-09-16T18:04:40.581Z,99.90
2022-09-16T18:13:31.068Z,99.90
2022-09-16T18:19:32.510Z,99.90
2022-09-16T18:25:12.445Z,99.90
2022-09-16T18:55:39.014Z,99.90
2022-09-16T19:29:02.385Z,99.90
2022-09-16T20:07:25.963Z,99.90
2022-09-16T21:51:36.467Z,99.90
2022-09-16T22:25:07.536Z,99.90
2022-09-16T22:46:11.492Z,99.90
2022-09-16T23:05:21.355Z,99.90
2022-09-16T23:08:24.208Z,99.90
2022-09-16T23:11:19.250Z,99.90
2022-09-16T23:14:22.525Z,99.90
2022-09-16T23:17:19.728Z,99.90
2022-09-16T23:20:14.150Z,99.90
2022-09-16T23:26:02.445Z,99.90
2022-09-16T23:31:54.407Z,99.90
2022-09-16T23:37:28.400Z,99.90
2022-09-16T23:40:20.116Z,99.90
2022-09-16T23:43:13.541Z,99.90
2022-09-16T23:46:06.281Z,99.90
2022-09-16T23:48:56.736Z,99.90
2022-09-16T23:51:52.477Z,99.90
2022-09-16T23:57:31.059Z,99.90
